Airfield :
LOGIN :

Register | Disclaimer

   EN    FR    IT 

 










Legend :    VFR   Marginal VFR   IFR   Intensive IFR   Very Intensive IFR
Visi :
Ceiling :
>= 8 km
>= 3000ft
5 to 8 km
1000 to 3000 ft
1500m to 5 km
500 to 1000 ft
800 to 1500m
200 to 500 ft
< 800m
< 200 ft
Symbols :   Thunderstorms  Fog  Heavy snow  Heavy precipitations  Wind > 20 kt
SIGMETs :     Misc.  Thunderstorms  Icing  Turbulence  Mountain Waves  Volcanic Ashes






- Airport Elevation : 183 ft


LIBA - Amendola Foggia

CURRENT METAR :
  • 181355Z /////KT 9999 -RA FEW025 FEW035CB BKN060 13/08 Q1008

EXPIRED METARs :
  • 181255Z 02006KT 9999 -RA FEW025 FEW035CB SCT060 13/08 Q1008 RMK BKN VIS MIN 7000 WIND THR11 34010KT WIND THR29 /////KT WHT
  • 181155Z 08006KT 9999 FEW030 FEW035CB SCT060 16/04 Q1007 RMK BKN VIS MIN 9999 WIND THR11 07005KT WIND THR29 /////KT BLU
  • 181055Z 07010KT 9999 FEW030 FEW035CB 18/05 Q1007 RMK BKN SCT070 VIS MIN 9999 WIND THR11 06009KT WIND THR29 /////KT BLU
  • 180955Z 04009KT 9999 FEW030 FEW035CB 16/03 Q1007 RMK BKN SCT070 VIS MIN 9999 WIND THR11 02008KT WIND THR29 /////KT BLU

TAF TAF LIBA
Valid from the 18 at 15:00 until the 19 at 00:00 UTC


181400Z 1815/1824 08007KT 9999 FEW030 SCT060
TEMPO 1815/1816 06015G27KT 5000 TSRA FEW020CB SCT030
TEMPO 1816/1818 6000 SHRA



MET'MAP, your aeronautical weather chart ! - Copyright ORBIFLY December 2007 - Disclaimer

ORBIFLY MET'MAP TEAM :

Programming & Development : Alexandra Zaïnal
Original concept : Baudouin d'Aumeries
Technical & hardware support : Manuel Goepfert
Assistance : Marc-Olivier Méhu




SOURCES & CREDITS :

   NOAA